Time;durP1;ratioP1;P1;durP2;ratioP2;P2;SDS_P1;SDS_P2;PMS_P1;PMS_P2;Temp;Humidity;BMP_temperature;BMP_pressure;BME280_temperature;BME280_humidity;BME280_pressure;Samples;Min_cycle;Max_cycle;Signal;HPM_P1;HPM_P2
2021/09/06 00:01:00;;;;;;;6.50;4.45;;;;;;;13.01;95.11;99274.88;5093502;28;20457;-75
2021/09/06 00:03:25;;;;;;;7.35;5.07;;;;;;;13.03;94.58;99262.75;5075310;28;20016;-75
2021/09/06 00:05:50;;;;;;;7.38;4.88;;;;;;;12.94;93.88;99259.41;5075384;28;20031;-75
2021/09/06 00:08:16;;;;;;;8.20;4.30;;;;;;;12.94;93.47;99267.56;5093636;28;20055;-75
2021/09/06 00:10:43;;;;;;;8.48;4.80;;;;;;;12.92;93.08;99264.22;5092782;28;20050;-75
2021/09/06 00:13:11;;;;;;;9.10;4.93;;;;;;;12.80;93.62;99265.03;5074902;28;20100;-75
2021/09/06 00:15:38;;;;;;;8.68;5.00;;;;;;;12.81;93.91;99270.25;5093818;28;20833;-73
2021/09/06 00:18:05;;;;;;;10.20;4.72;;;;;;;12.75;94.06;99268.34;5073330;28;20025;-73
2021/09/06 00:20:31;;;;;;;7.90;4.45;;;;;;;12.76;93.45;99261.91;5075595;28;20028;-73
2021/09/06 00:22:56;;;;;;;6.70;4.35;;;;;;;12.72;93.11;99274.19;5093153;28;20045;-73
2021/09/06 00:25:22;;;;;;;6.93;4.88;;;;;;;12.63;93.94;99275.44;5080032;28;20446;-75
2021/09/06 00:27:48;;;;;;;6.93;4.78;;;;;;;12.60;95.17;99257.69;5094064;28;20036;-75
2021/09/06 00:30:13;;;;;;;6.20;4.38;;;;;;;12.57;95.88;99262.69;5093013;28;20085;-75
2021/09/06 00:32:39;;;;;;;8.85;4.93;;;;;;;12.52;96.10;99260.56;5092959;28;20473;-76
2021/09/06 00:35:05;;;;;;;7.40;4.68;;;;;;;12.63;95.43;99265.44;5093099;28;20061;-76
2021/09/06 00:37:30;;;;;;;6.20;4.80;;;;;;;12.59;94.83;99256.00;5093023;28;20032;-75
2021/09/06 00:39:55;;;;;;;7.10;4.80;;;;;;;12.55;93.85;99267.47;5073858;28;20055;-75
2021/09/06 00:42:21;;;;;;;7.93;4.72;;;;;;;12.50;94.59;99268.09;5093071;28;20020;-75
2021/09/06 00:44:47;;;;;;;6.30;4.47;;;;;;;12.55;95.59;99281.03;5092940;28;20093;-76
2021/09/06 00:47:12;;;;;;;8.63;5.10;;;;;;;12.53;95.84;99270.41;5093026;28;20498;-75
2021/09/06 00:49:37;;;;;;;10.18;5.20;;;;;;;12.40;95.95;99267.66;5092800;28;20027;-75
2021/09/06 00:52:03;;;;;;;9.90;5.50;;;;;;;12.31;96.19;99263.44;5074568;28;20042;-75
2021/09/06 00:54:28;;;;;;;10.38;5.00;;;;;;;12.22;96.96;99262.78;5074378;28;20016;-75
2021/09/06 00:56:54;;;;;;;8.85;5.53;;;;;;;12.18;97.23;99265.06;5092963;28;20141;-75
2021/09/06 00:59:19;;;;;;;7.43;4.72;;;;;;;12.36;97.58;99278.06;5074424;28;20027;-75
2021/09/06 01:01:45;;;;;;;8.88;5.85;;;;;;;12.39;97.29;99277.69;5092819;28;20020;-75
2021/09/06 01:04:10;;;;;;;7.70;5.35;;;;;;;12.21;97.25;99258.41;5092701;28;20019;-76
2021/09/06 01:06:36;;;;;;;9.85;5.72;;;;;;;12.44;96.82;99275.19;5073914;28;20024;-75
2021/09/06 01:09:01;;;;;;;9.95;6.47;;;;;;;12.36;97.33;99267.19;5089657;28;20035;-76
2021/09/06 01:11:27;;;;;;;9.02;6.20;;;;;;;12.18;97.58;99264.22;5072479;28;20024;-75
2021/09/06 01:13:52;;;;;;;8.63;5.95;;;;;;;12.20;97.68;99268.41;5054338;28;20016;-76
2021/09/06 01:16:19;;;;;;;9.57;5.78;;;;;;;12.17;97.99;99257.13;5084103;28;20032;-73
2021/09/06 01:18:44;;;;;;;10.48;5.90;;;;;;;12.12;97.58;99249.59;5092345;28;20500;-73
2021/09/06 01:21:09;;;;;;;11.27;6.53;;;;;;;12.22;97.88;99277.19;5091729;28;20036;-73
2021/09/06 01:23:35;;;;;;;9.15;6.15;;;;;;;12.20;98.32;99276.53;5074682;28;20521;-74
2021/09/06 01:26:00;;;;;;;11.25;6.75;;;;;;;12.12;98.65;99270.47;5092745;28;20479;-74
2021/09/06 01:28:26;;;;;;;9.13;6.05;;;;;;;12.12;98.22;99278.59;5092209;28;20037;-73
2021/09/06 01:30:51;;;;;;;6.60;4.97;;;;;;;12.00;97.83;99279.19;5091850;28;20110;-73
2021/09/06 01:33:16;;;;;;;8.63;4.57;;;;;;;12.02;97.53;99273.53;5100222;28;20078;-73
2021/09/06 01:35:42;;;;;;;9.35;5.18;;;;;;;11.84;97.92;99261.34;5079063;28;20115;-74
2021/09/06 01:38:07;;;;;;;9.13;5.13;;;;;;;11.73;98.66;99274.59;5071639;28;20026;-73
2021/09/06 01:40:32;;;;;;;9.60;4.93;;;;;;;11.64;99.53;99287.47;5090002;28;20500;-74
2021/09/06 01:42:58;;;;;;;7.18;4.82;;;;;;;11.61;99.86;99280.59;5073766;28;20107;-73
2021/09/06 01:45:23;;;;;;;7.40;4.55;;;;;;;11.55;100.00;99286.81;5091538;28;20047;-76
2021/09/06 01:47:48;;;;;;;7.75;5.03;;;;;;;11.47;100.00;99283.38;5091710;28;20032;-76
2021/09/06 01:50:14;;;;;;;11.63;5.72;;;;;;;11.44;100.00;99279.19;5091844;28;20036;-73
2021/09/06 01:52:39;;;;;;;14.13;5.40;;;;;;;11.47;100.00;99296.94;5073515;28;20024;-73
2021/09/06 01:55:05;;;;;;;9.77;5.68;;;;;;;11.38;100.00;99280.00;5091420;28;20101;-76
2021/09/06 01:57:31;;;;;;;8.68;6.10;;;;;;;11.27;100.00;99267.00;5091615;28;20118;-76
2021/09/06 01:59:57;;;;;;;9.98;5.80;;;;;;;11.41;100.00;99279.59;5069161;28;20111;-73
2021/09/06 02:02:23;;;;;;;11.05;6.00;;;;;;;11.49;100.00;99281.31;5070261;28;20008;-73
2021/09/06 02:04:49;;;;;;;8.50;5.65;;;;;;;11.71;100.00;99301.91;5091842;28;20028;-74
2021/09/06 02:07:15;;;;;;;11.23;5.93;;;;;;;11.72;100.00;99286.50;5091393;28;20043;-73
2021/09/06 02:09:40;;;;;;;8.30;5.35;;;;;;;11.84;100.00;99287.59;5091427;28;20032;-73
2021/09/06 02:12:06;;;;;;;12.00;5.55;;;;;;;11.85;100.00;99292.81;5091321;28;20024;-74
2021/09/06 02:14:31;;;;;;;9.95;5.93;;;;;;;11.78;100.00;99301.94;5073311;28;20039;-73
2021/09/06 02:16:57;;;;;;;9.95;5.50;;;;;;;11.63;100.00;99294.78;5073141;28;20448;-73
2021/09/06 02:19:22;;;;;;;11.20;5.70;;;;;;;11.67;100.00;99288.97;5072636;28;20062;-76
2021/09/06 02:21:48;;;;;;;9.43;5.47;;;;;;;11.67;100.00;99289.78;5072973;28;20381;-76
2021/09/06 02:24:14;;;;;;;8.15;5.45;;;;;;;11.70;99.83;99288.56;5072425;28;20388;-76
2021/09/06 02:26:40;;;;;;;7.47;5.35;;;;;;;11.49;99.79;99287.56;5090693;28;20094;-76
2021/09/06 02:29:05;;;;;;;7.60;4.90;;;;;;;11.58;100.00;99297.25;5106227;28;20039;-76
2021/09/06 02:31:30;;;;;;;9.45;5.20;;;;;;;11.39;100.00;99300.63;5107219;28;20031;-73
2021/09/06 02:33:56;;;;;;;14.02;5.57;;;;;;;11.23;100.00;99287.38;5092911;28;20064;-76
2021/09/06 02:36:21;;;;;;;8.70;5.30;;;;;;;11.28;100.00;99284.91;5093114;28;20487;-76
2021/09/06 02:38:46;;;;;;;8.45;5.78;;;;;;;11.43;100.00;99298.38;5092645;28;20365;-76
2021/09/06 02:41:13;;;;;;;8.65;5.75;;;;;;;11.37;100.00;99295.41;5100976;28;20389;-76
2021/09/06 02:43:38;;;;;;;9.55;5.22;;;;;;;11.39;100.00;99287.91;5090651;28;20095;-76
2021/09/06 02:46:03;;;;;;;13.80;5.47;;;;;;;11.44;100.00;99300.88;5090873;28;20173;-76
2021/09/06 02:48:29;;;;;;;9.52;6.10;;;;;;;11.35;100.00;99313.72;5071878;28;20028;-76
2021/09/06 02:50:54;;;;;;;10.60;6.35;;;;;;;11.28;100.00;99291.16;5090471;28;20032;-76
2021/09/06 02:53:19;;;;;;;10.75;6.50;;;;;;;11.28;100.00;99307.41;5090539;28;20028;-76
2021/09/06 02:55:45;;;;;;;11.73;6.57;;;;;;;11.39;100.00;99315.00;5090259;28;20020;-76
2021/09/06 02:58:10;;;;;;;9.65;5.60;;;;;;;11.23;100.00;99301.75;5072305;28;20543;-76
2021/09/06 03:00:35;;;;;;;9.52;6.30;;;;;;;11.31;100.00;99312.44;5088284;28;20055;-76
2021/09/06 03:03:00;;;;;;;10.73;6.75;;;;;;;11.19;100.00;99314.84;5090372;28;20026;-76
2021/09/06 03:05:26;;;;;;;10.65;6.35;;;;;;;11.12;100.00;99313.94;5072541;28;20046;-76
2021/09/06 03:07:51;;;;;;;9.27;6.30;;;;;;;10.97;100.00;99295.06;5090838;28;20054;-77
2021/09/06 03:10:16;;;;;;;8.55;6.03;;;;;;;10.86;100.00;99308.28;5090564;28;20099;-76
2021/09/06 03:12:42;;;;;;;10.57;6.47;;;;;;;10.98;100.00;99323.00;5090519;28;20028;-76
2021/09/06 03:15:08;;;;;;;10.27;6.00;;;;;;;10.90;100.00;99310.41;5071950;28;20481;-76
2021/09/06 03:17:33;;;;;;;9.73;6.63;;;;;;;10.87;100.00;99304.53;5072138;28;20043;-76
2021/09/06 03:19:58;;;;;;;10.10;6.82;;;;;;;10.81;100.00;99302.59;5090626;28;20460;-76
2021/09/06 03:22:24;;;;;;;11.20;7.50;;;;;;;10.77;100.00;99299.44;5090672;28;20537;-76
2021/09/06 03:24:49;;;;;;;10.80;7.82;;;;;;;10.76;100.00;99292.34;5072361;28;20111;-76
2021/09/06 03:27:14;;;;;;;9.48;7.13;;;;;;;10.77;100.00;99296.75;5072703;28;20100;-76
2021/09/06 03:29:40;;;;;;;11.50;7.43;;;;;;;10.81;100.00;99300.72;5090610;28;20028;-76
2021/09/06 03:32:05;;;;;;;10.90;7.30;;;;;;;10.69;100.00;99292.28;5074156;28;20078;-76
2021/09/06 03:34:31;;;;;;;11.32;7.85;;;;;;;10.71;100.00;99283.97;5073299;28;20028;-76
2021/09/06 03:36:56;;;;;;;10.82;7.50;;;;;;;10.81;100.00;99308.03;5074153;28;20024;-76
2021/09/06 03:39:22;;;;;;;11.48;6.88;;;;;;;10.63;100.00;99293.03;5091803;28;20024;-76
2021/09/06 03:41:47;;;;;;;10.77;6.55;;;;;;;10.67;100.00;99298.94;5086825;28;20017;-75
2021/09/06 03:44:13;;;;;;;12.15;7.22;;;;;;;10.62;100.00;99287.84;5104997;28;20103;-75
2021/09/06 03:46:38;;;;;;;11.25;6.25;;;;;;;10.64;100.00;99307.44;5108203;28;20051;-76
2021/09/06 03:49:05;;;;;;;9.88;5.72;;;;;;;10.59;100.00;99301.75;5090139;28;20050;-76
2021/09/06 03:51:30;;;;;;;14.85;6.78;;;;;;;10.59;100.00;99280.94;5109646;28;20062;-75
2021/09/06 03:53:55;;;;;;;13.32;6.03;;;;;;;10.55;100.00;99293.16;5105658;28;20318;-75
2021/09/06 03:56:21;;;;;;;9.95;6.80;;;;;;;10.53;100.00;99293.38;5084787;28;20027;-76
2021/09/06 03:58:46;;;;;;;10.50;6.82;;;;;;;10.48;100.00;99286.88;5096826;28;20046;-76
2021/09/06 04:01:11;;;;;;;9.45;6.40;;;;;;;10.47;100.00;99294.13;5076610;28;20023;-76
2021/09/06 04:03:37;;;;;;;14.45;6.63;;;;;;;10.58;100.00;99306.31;5094054;28;20023;-75
2021/09/06 04:06:02;;;;;;;9.85;6.28;;;;;;;10.48;100.00;99292.28;5094466;28;20035;-76
2021/09/06 04:08:28;;;;;;;10.05;6.53;;;;;;;10.39;100.00;99283.41;5093992;28;20020;-76
2021/09/06 04:10:53;;;;;;;9.48;6.38;;;;;;;10.45;100.00;99308.84;5093906;28;20162;-75
2021/09/06 04:13:19;;;;;;;10.98;6.10;;;;;;;10.44;100.00;99316.16;5094144;28;20027;-76
2021/09/06 04:15:47;;;;;;;9.13;6.03;;;;;;;10.34;100.00;99290.44;5077657;28;20028;-76
2021/09/06 04:18:12;;;;;;;9.27;5.88;;;;;;;10.42;100.00;99291.16;5076890;28;20024;-76
2021/09/06 04:20:38;;;;;;;9.27;6.53;;;;;;;10.36;100.00;99300.03;5076052;28;20024;-76
2021/09/06 04:23:03;;;;;;;11.68;6.85;;;;;;;10.31;100.00;99288.94;5093126;28;20094;-76
2021/09/06 04:25:28;;;;;;;7.80;5.70;;;;;;;10.25;100.00;99312.13;5094722;28;20054;-76
2021/09/06 04:27:53;;;;;;;9.32;6.47;;;;;;;10.20;100.00;99311.88;5105131;28;20048;-76
2021/09/06 04:30:19;;;;;;;8.32;5.97;;;;;;;10.21;100.00;99316.25;5093542;28;20694;-76
2021/09/06 04:32:44;;;;;;;11.07;7.28;;;;;;;10.30;100.00;99320.56;5092869;28;20050;-76
2021/09/06 04:35:10;;;;;;;9.25;6.28;;;;;;;10.26;100.00;99307.56;5075407;28;20020;-77
2021/09/06 04:37:35;;;;;;;8.70;6.43;;;;;;;10.18;100.00;99300.41;5096125;28;20024;-76
2021/09/06 04:40:00;;;;;;;12.77;5.95;;;;;;;10.22;100.00;99315.22;5075874;28;20366;-75
2021/09/06 04:42:26;;;;;;;8.05;5.53;;;;;;;10.19;100.00;99325.56;5077498;28;20409;-77
2021/09/06 04:44:51;;;;;;;13.30;6.53;;;;;;;10.18;100.00;99313.09;5075923;28;20036;-76
2021/09/06 04:47:17;;;;;;;9.35;6.43;;;;;;;10.26;100.00;99326.50;5093592;28;20028;-75
2021/09/06 04:49:42;;;;;;;8.90;5.60;;;;;;;10.21;100.00;99332.47;5075399;28;20028;-76
2021/09/06 04:52:08;;;;;;;7.45;5.10;;;;;;;10.17;100.00;99331.19;5093615;28;20028;-76
2021/09/06 04:54:33;;;;;;;7.13;5.13;;;;;;;10.12;100.00;99336.31;5105826;28;20028;-76
2021/09/06 04:56:58;;;;;;;9.88;5.38;;;;;;;10.16;100.00;99340.28;5094152;28;20374;-76
2021/09/06 04:59:24;;;;;;;9.75;6.10;;;;;;;10.31;100.00;99357.38;5077172;28;20114;-75
2021/09/06 05:01:49;;;;;;;8.20;5.60;;;;;;;10.26;100.00;99348.97;5093903;28;20095;-76
2021/09/06 05:04:15;;;;;;;6.20;4.60;;;;;;;10.44;100.00;99367.53;5066503;28;20036;-75
2021/09/06 05:06:41;;;;;;;16.05;5.85;;;;;;;10.51;100.00;99362.22;5086843;28;20057;-76
2021/09/06 05:09:06;;;;;;;9.93;5.43;;;;;;;10.62;99.71;99361.72;5098797;28;20032;-76
2021/09/06 05:11:32;;;;;;;8.40;5.35;;;;;;;10.54;97.92;99353.72;5094234;28;20024;-75
2021/09/06 05:13:58;;;;;;;9.93;4.90;;;;;;;10.62;97.90;99355.50;5094002;28;20020;-76
2021/09/06 05:16:23;;;;;;;11.13;4.97;;;;;;;10.75;97.63;99378.13;5099722;28;20024;-75
2021/09/06 05:18:48;;;;;;;7.18;4.95;;;;;;;10.72;97.00;99364.16;5092959;28;20020;-76
2021/09/06 05:21:14;;;;;;;7.30;5.13;;;;;;;10.99;96.42;99384.22;5059493;28;20036;-76
2021/09/06 05:23:39;;;;;;;10.63;5.30;;;;;;;10.99;95.68;99376.09;5060363;28;20489;-73
2021/09/06 05:26:05;;;;;;;8.85;5.07;;;;;;;11.13;95.38;99379.78;5083619;28;20016;-71
2021/09/06 05:28:30;;;;;;;11.10;5.40;;;;;;;11.24;95.40;99373.88;5084650;28;20054;-74
2021/09/06 05:30:55;;;;;;;12.88;5.32;;;;;;;11.91;90.96;99372.56;5084374;28;20028;-72
2021/09/06 05:33:21;;;;;;;8.93;5.00;;;;;;;13.45;83.68;99369.41;5093997;28;20111;-70
2021/09/06 05:35:46;;;;;;;6.72;4.90;;;;;;;15.34;73.87;99367.59;5088588;28;20059;-70
2021/09/06 05:38:12;;;;;;;8.63;5.03;;;;;;;16.65;65.72;99368.47;5086918;28;20038;-71
2021/09/06 05:40:38;;;;;;;7.70;4.78;;;;;;;17.52;63.55;99379.88;5072249;28;20023;-74
2021/09/06 05:43:03;;;;;;;8.95;5.28;;;;;;;18.23;59.65;99373.66;5071392;28;20043;-72
2021/09/06 05:45:29;;;;;;;7.90;4.57;;;;;;;18.92;58.35;99374.63;5072283;28;20061;-70
2021/09/06 05:47:54;;;;;;;10.60;4.53;;;;;;;19.15;57.26;99372.84;5090237;28;20508;-70
2021/09/06 05:50:20;;;;;;;8.45;5.03;;;;;;;19.61;56.63;99368.19;5091413;28;20072;-70
2021/09/06 05:52:46;;;;;;;9.68;4.57;;;;;;;19.60;55.83;99377.53;5063653;28;20040;-69
2021/09/06 05:55:13;;;;;;;5.97;4.15;;;;;;;20.40;54.18;99372.72;5087657;28;20034;-69
2021/09/06 05:57:39;;;;;;;7.22;4.85;;;;;;;20.83;52.44;99373.84;5086414;28;20039;-69
2021/09/06 06:00:07;;;;;;;6.18;4.35;;;;;;;20.93;52.13;99385.84;5080466;28;22662;-69
2021/09/06 06:02:32;;;;;;;6.97;4.68;;;;;;;21.18;51.59;99371.53;5079709;28;20028;-69
2021/09/06 06:04:57;;;;;;;8.27;4.95;;;;;;;21.90;49.34;99374.94;5081474;28;20074;-69
2021/09/06 06:07:23;;;;;;;6.72;3.72;;;;;;;22.47;47.48;99387.22;5075143;28;20547;-69
2021/09/06 06:09:50;;;;;;;6.50;4.03;;;;;;;23.24;44.82;99380.13;5090087;28;20016;-70
2021/09/06 06:12:15;;;;;;;8.48;4.28;;;;;;;23.22;44.87;99375.97;5087268;28;20036;-69
2021/09/06 06:14:40;;;;;;;9.82;4.93;;;;;;;23.10;45.81;99381.72;5087112;28;20446;-70
2021/09/06 06:17:06;;;;;;;8.95;4.90;;;;;;;23.59;44.43;99392.31;5090460;28;20042;-73
2021/09/06 06:19:31;;;;;;;6.00;4.30;;;;;;;23.94;44.35;99388.75;5088636;28;20023;-71
2021/09/06 06:21:56;;;;;;;5.68;4.00;;;;;;;24.37;43.29;99388.44;5087144;28;20032;-72
2021/09/06 06:24:21;;;;;;;7.00;4.30;;;;;;;24.34;42.98;99380.69;5089443;28;20023;-72
2021/09/06 06:26:47;;;;;;;6.65;3.67;;;;;;;26.21;40.15;99384.66;5089308;28;20035;-72
2021/09/06 06:29:12;;;;;;;7.50;4.45;;;;;;;25.50;40.66;99386.06;5088732;28;20023;-72
2021/09/06 06:31:37;;;;;;;6.95;4.15;;;;;;;24.91;42.13;99384.94;5088719;28;20069;-72
2021/09/06 06:34:03;;;;;;;7.20;4.22;;;;;;;25.13;42.42;99390.94;5087988;28;20023;-73
2021/09/06 06:36:28;;;;;;;9.95;4.32;;;;;;;24.68;43.91;99389.19;5088718;28;20024;-72
2021/09/06 06:38:53;;;;;;;9.35;4.43;;;;;;;25.38;41.36;99400.25;5089474;28;20024;-73
2021/09/06 06:41:19;;;;;;;7.45;4.50;;;;;;;26.92;39.51;99396.94;5087563;28;20028;-74
2021/09/06 06:43:44;;;;;;;8.70;4.57;;;;;;;27.34;38.17;99389.72;5088319;28;20090;-72
2021/09/06 06:46:10;;;;;;;10.00;4.35;;;;;;;27.27;38.89;99397.59;5088606;28;20063;-72
2021/09/06 06:48:35;;;;;;;6.43;4.55;;;;;;;27.53;37.40;99395.28;5071380;28;20040;-72
2021/09/06 06:51:00;;;;;;;5.78;4.60;;;;;;;28.26;36.20;99399.38;5089113;28;20028;-74
2021/09/06 06:53:26;;;;;;;5.97;4.47;;;;;;;29.29;34.42;99395.41;5086911;28;20028;-75
2021/09/06 06:55:51;;;;;;;7.05;4.72;;;;;;;29.65;33.06;99389.84;5087908;28;20024;-74
2021/09/06 06:58:16;;;;;;;5.57;4.25;;;;;;;29.20;33.43;99383.34;5088617;28;20641;-73
2021/09/06 07:00:41;;;;;;;6.18;4.45;;;;;;;28.99;34.26;99389.34;5088544;28;20040;-71
2021/09/06 07:03:07;;;;;;;7.10;4.68;;;;;;;29.00;33.89;99388.22;5087507;28;20028;-73
2021/09/06 07:05:32;;;;;;;9.32;4.88;;;;;;;28.54;34.72;99386.38;5087823;28;20024;-73
2021/09/06 07:07:57;;;;;;;10.30;5.30;;;;;;;29.36;33.54;99389.41;5088784;28;20124;-72
2021/09/06 07:10:23;;;;;;;8.13;4.45;;;;;;;30.50;32.94;99391.91;5088843;28;20385;-69
2021/09/06 07:12:48;;;;;;;7.20;4.63;;;;;;;31.88;29.86;99387.75;5086638;28;20064;-64
2021/09/06 07:15:13;;;;;;;6.57;4.70;;;;;;;32.27;29.81;99397.91;5089109;28;20020;-72
2021/09/06 07:17:39;;;;;;;10.23;4.95;;;;;;;31.42;30.60;99394.84;5087413;28;21654;-71
2021/09/06 07:20:05;;;;;;;7.20;4.55;;;;;;;31.30;31.21;99400.22;5090948;28;20542;-73
2021/09/06 07:22:31;;;;;;;11.40;4.60;;;;;;;30.03;32.66;99386.69;5090554;28;20043;-69
2021/09/06 07:24:56;;;;;;;12.27;4.60;;;;;;;29.19;34.30;99395.66;5092040;28;20036;-70
2021/09/06 07:27:22;;;;;;;8.95;4.63;;;;;;;31.05;31.81;99388.69;5092282;28;20756;-71
2021/09/06 07:29:48;;;;;;;13.48;5.00;;;;;;;31.19;31.07;99383.75;5092780;28;20100;-68
2021/09/06 07:32:13;;;;;;;8.43;4.68;;;;;;;32.22;29.35;99394.47;5090976;28;20020;-69
2021/09/06 07:34:39;;;;;;;7.25;3.85;;;;;;;33.75;27.99;99388.75;5090344;28;20035;-71
2021/09/06 07:37:06;;;;;;;9.38;4.47;;;;;;;33.04;28.63;99397.16;5089358;28;20032;-71
2021/09/06 07:39:33;;;;;;;13.07;4.63;;;;;;;32.82;29.31;99396.25;5084117;28;20036;-72
2021/09/06 07:41:59;;;;;;;9.27;4.47;;;;;;;31.73;30.40;99400.28;5087347;28;20028;-73
2021/09/06 07:44:24;;;;;;;7.47;4.57;;;;;;;31.71;30.74;99401.78;5087478;28;20028;-77
2021/09/06 07:46:52;;;;;;;6.40;4.53;;;;;;;31.81;30.53;99407.03;5078535;28;20495;-70
2021/09/06 07:49:17;;;;;;;7.30;4.20;;;;;;;32.08;30.04;99401.09;5082111;28;20032;-76
2021/09/06 07:51:42;;;;;;;12.90;4.72;;;;;;;31.41;31.29;99409.97;5092188;28;20016;-72
2021/09/06 07:54:08;;;;;;;11.88;5.00;;;;;;;31.81;30.81;99407.03;5094742;28;20024;-72
2021/09/06 07:56:33;;;;;;;11.82;4.88;;;;;;;31.93;31.13;99401.59;5091700;28;20443;-70
2021/09/06 07:58:59;;;;;;;15.05;5.28;;;;;;;32.43;30.34;99412.19;5091028;28;20585;-69
2021/09/06 08:01:24;;;;;;;12.48;4.68;;;;;;;32.60;30.61;99408.56;5088997;28;20118;-70
2021/09/06 08:03:49;;;;;;;7.50;4.70;;;;;;;33.37;28.85;99405.69;5082262;28;20063;-71
2021/09/06 08:06:15;;;;;;;10.77;4.60;;;;;;;32.44;30.10;99425.06;5088612;28;20036;-71
2021/09/06 08:08:40;;;;;;;12.00;4.53;;;;;;;33.30;29.98;99427.84;5088941;28;20464;-71
2021/09/06 08:11:05;;;;;;;7.57;4.18;;;;;;;33.03;29.55;99421.56;5090310;28;20544;-71
2021/09/06 08:13:31;;;;;;;13.80;5.65;;;;;;;33.12;30.35;99430.75;5089641;28;20069;-71
2021/09/06 08:15:56;;;;;;;10.77;4.35;;;;;;;33.38;30.10;99422.19;5089330;28;20088;-71
2021/09/06 08:18:21;;;;;;;8.13;4.47;;;;;;;34.34;29.05;99426.19;5090821;28;20493;-71
2021/09/06 08:20:46;;;;;;;11.20;4.80;;;;;;;34.72;28.10;99425.13;5090427;28;20084;-71
2021/09/06 08:23:12;;;;;;;10.38;4.63;;;;;;;34.61;28.19;99430.34;5090678;28;20645;-71
2021/09/06 08:25:37;;;;;;;8.85;4.25;;;;;;;34.84;28.09;99430.72;5089257;28;20036;-71
2021/09/06 08:28:03;;;;;;;11.15;3.95;;;;;;;35.07;28.13;99431.09;5089831;28;20035;-71
2021/09/06 08:30:28;;;;;;;7.00;3.78;;;;;;;35.33;27.28;99436.38;5089352;28;20024;-71
2021/09/06 08:32:54;;;;;;;7.25;4.35;;;;;;;36.46;26.63;99433.66;5090161;28;20514;-71
2021/09/06 08:35:19;;;;;;;7.93;4.05;;;;;;;35.14;27.88;99444.63;5090215;28;20530;-71
2021/09/06 08:37:44;;;;;;;6.10;3.90;;;;;;;34.15;29.04;99440.75;5091029;28;20027;-71
2021/09/06 08:40:11;;;;;;;9.48;4.22;;;;;;;35.69;27.80;99448.78;5089487;28;20061;-72
2021/09/06 08:42:38;;;;;;;8.98;4.07;;;;;;;35.38;27.50;99455.84;5090046;28;20123;-71
2021/09/06 08:45:08;;;;;;;7.03;4.20;;;;;;;36.08;26.61;99449.97;5089743;28;20105;-72
2021/09/06 08:47:33;;;;;;;5.75;4.07;;;;;;;36.51;26.54;99456.75;5090933;28;20499;-72
2021/09/06 08:49:59;;;;;;;6.07;4.03;;;;;;;36.66;27.48;99441.09;5089944;28;20051;-72
2021/09/06 08:52:25;;;;;;;10.57;3.88;;;;;;;37.23;25.74;99439.72;5090071;28;20119;-70
2021/09/06 08:54:51;;;;;;;8.75;3.60;;;;;;;37.09;26.52;99436.53;5089929;28;20027;-72
2021/09/06 08:57:18;;;;;;;7.18;4.03;;;;;;;36.77;25.79;99433.72;5090291;28;20050;-71
2021/09/06 08:59:44;;;;;;;6.50;3.47;;;;;;;38.10;24.78;99450.94;5078958;28;20028;-72
2021/09/06 09:02:11;;;;;;;7.68;3.90;;;;;;;37.67;24.47;99453.63;5087098;28;20024;-71
2021/09/06 09:04:36;;;;;;;7.78;3.65;;;;;;;36.77;25.90;99444.19;5090098;28;20046;-72
2021/09/06 09:07:03;;;;;;;5.70;3.77;;;;;;;36.38;26.17;99443.94;5090397;28;20726;-72
2021/09/06 09:09:36;;;;;;;6.23;3.97;;;;;;;36.54;26.28;99446.78;5089723;28;20666;-71
2021/09/06 09:12:04;;;;;;;6.93;3.78;;;;;;;36.93;25.65;99447.81;5087827;28;20028;-72
2021/09/06 09:14:31;;;;;;;6.15;3.50;;;;;;;37.61;24.11;99452.31;5090071;28;20028;-72
2021/09/06 09:16:57;;;;;;;5.88;3.85;;;;;;;37.94;24.26;99451.00;5090229;28;20102;-72
2021/09/06 09:19:23;;;;;;;6.43;3.97;;;;;;;37.68;25.08;99455.28;5089907;28;20166;-72
2021/09/06 09:22:04;;;;;;;4.70;3.55;;;;;;;37.96;23.68;99454.25;5089328;28;20043;-72
2021/09/06 09:24:29;;;;;;;4.25;3.72;;;;;;;36.81;25.64;99445.91;5081831;28;20081;-72
2021/09/06 09:26:57;;;;;;;4.95;4.10;;;;;;;37.60;24.11;99456.31;5089695;28;20043;-72
2021/09/06 09:29:22;;;;;;;9.25;4.55;;;;;;;36.66;24.83;99457.19;5089710;28;20032;-72
2021/09/06 09:31:52;;;;;;;10.70;4.72;;;;;;;35.66;26.04;99441.00;5085571;28;20036;-72
2021/09/06 09:34:18;;;;;;;6.03;3.78;;;;;;;36.71;24.79;99438.00;5082597;28;20488;-72
2021/09/06 09:36:44;;;;;;;9.98;4.40;;;;;;;36.56;25.08;99448.06;5088643;28;20076;-72
2021/09/06 09:39:13;;;;;;;5.15;3.80;;;;;;;36.79;25.27;99442.63;5089958;28;20516;-72
2021/09/06 09:41:41;;;;;;;7.03;3.97;;;;;;;35.94;25.77;99444.69;5088218;28;20072;-72
2021/09/06 09:44:16;;;;;;;6.50;3.95;;;;;;;36.56;25.03;99441.63;5088602;28;20460;-72
2021/09/06 09:46:52;;;;;;;4.80;3.42;;;;;;;38.44;24.10;99435.09;5087555;28;20800;-72
2021/09/06 09:49:18;;;;;;;5.47;3.97;;;;;;;38.55;23.06;99429.63;5089267;28;20043;-73
2021/09/06 09:51:43;;;;;;;8.50;4.05;;;;;;;38.36;23.00;99430.47;5089515;28;20020;-72
2021/09/06 09:54:09;;;;;;;5.28;3.88;;;;;;;37.58;23.48;99427.63;5090016;28;20496;-72
2021/09/06 09:56:34;;;;;;;5.63;3.83;;;;;;;36.65;24.56;99428.16;5088473;28;20512;-71
2021/09/06 09:59:00;;;;;;;4.78;3.75;;;;;;;37.67;24.13;99427.41;5087901;28;20040;-72
2021/09/06 10:01:32;;;;;;;8.63;3.78;;;;;;;39.22;22.56;99427.13;5088816;28;20028;-72
2021/09/06 10:04:00;;;;;;;5.25;3.80;;;;;;;39.22;21.79;99429.13;5088718;28;20066;-72
2021/09/06 10:06:26;;;;;;;6.00;3.97;;;;;;;39.12;22.66;99424.09;5089013;28;20492;-72
2021/09/06 10:08:53;;;;;;;4.93;3.70;;;;;;;40.29;21.81;99426.94;5088975;28;20493;-72
2021/09/06 10:11:18;;;;;;;7.45;3.78;;;;;;;38.49;21.63;99417.81;5088795;28;20081;-72
2021/09/06 10:13:43;;;;;;;7.43;3.88;;;;;;;39.94;20.61;99416.81;5087649;28;20477;-71
2021/09/06 10:16:09;;;;;;;6.38;3.90;;;;;;;38.87;20.20;99416.03;5088792;28;20023;-72
2021/09/06 10:18:39;;;;;;;5.65;4.00;;;;;;;38.00;20.80;99412.81;5088090;28;20028;-71
2021/09/06 10:21:12;;;;;;;4.40;3.33;;;;;;;39.61;20.02;99418.38;5080215;28;20149;-72
2021/09/06 10:24:11;;;;;;;5.18;4.00;;;;;;;38.69;20.41;99406.41;5086315;28;20089;-72
2021/09/06 10:26:36;;;;;;;5.43;4.03;;;;;;;37.42;21.41;99407.09;5088467;28;20028;-72
2021/09/06 10:29:14;;;;;;;4.43;3.80;;;;;;;36.88;22.66;99404.97;5088212;28;20443;-72
2021/09/06 10:31:40;;;;;;;5.97;3.80;;;;;;;37.89;21.45;99400.44;5088688;28;20274;-72
2021/09/06 10:34:08;;;;;;;7.22;4.10;;;;;;;38.85;20.95;99404.25;5088494;28;20028;-72
2021/09/06 10:36:33;;;;;;;5.28;3.83;;;;;;;38.71;20.73;99399.19;5088088;28;20054;-71
2021/09/06 10:39:04;;;;;;;7.75;3.65;;;;;;;37.29;22.86;99395.09;5088707;28;20443;-72
2021/09/06 10:41:29;;;;;;;7.53;4.15;;;;;;;37.50;22.36;99391.97;5087376;28;20605;-72
2021/09/06 10:43:58;;;;;;;5.22;4.07;;;;;;;38.89;20.42;99393.06;5088389;28;20024;-72
2021/09/06 10:46:26;;;;;;;7.45;4.40;;;;;;;37.11;21.73;99391.88;5070235;28;20032;-72
2021/09/06 10:48:52;;;;;;;4.80;4.10;;;;;;;37.03;22.53;99390.88;5086966;28;20316;-72
2021/09/06 10:51:26;;;;;;;5.25;4.25;;;;;;;36.33;23.75;99385.81;5087624;28;20039;-72
2021/09/06 10:53:57;;;;;;;7.22;4.00;;;;;;;37.67;23.30;99380.22;5088172;28;20032;-71
2021/09/06 10:56:25;;;;;;;5.15;4.05;;;;;;;40.02;19.18;99375.22;5095041;28;20027;-72
2021/09/06 10:58:51;;;;;;;5.90;4.53;;;;;;;39.33;19.84;99379.19;5095186;28;20032;-71
2021/09/06 11:01:16;;;;;;;4.22;3.80;;;;;;;37.82;21.47;99370.03;5094767;28;20024;-72
2021/09/06 11:03:42;;;;;;;4.83;4.03;;;;;;;38.53;20.50;99373.44;5094514;28;20016;-71
2021/09/06 11:06:08;;;;;;;5.25;3.85;;;;;;;37.42;21.95;99364.75;5095498;28;20258;-71
2021/09/06 11:08:35;;;;;;;5.57;4.13;;;;;;;38.25;21.40;99372.88;5092357;28;20034;-72
2021/09/06 11:11:03;;;;;;;5.32;4.50;;;;;;;38.07;21.44;99376.22;5094696;28;20032;-71
2021/09/06 11:13:36;;;;;;;5.40;4.28;;;;;;;37.46;22.21;99362.78;5092821;28;20032;-71
2021/09/06 11:16:07;;;;;;;4.72;3.85;;;;;;;36.56;22.80;99368.34;5095149;28;20046;-71
2021/09/06 11:18:34;;;;;;;5.15;3.78;;;;;;;37.10;22.56;99369.66;5093509;28;20543;-71
2021/09/06 11:21:00;;;;;;;5.10;3.90;;;;;;;38.62;20.39;99366.69;5094245;28;20476;-71
2021/09/06 11:23:31;;;;;;;4.93;4.10;;;;;;;38.45;20.83;99363.19;5094358;28;20028;-72